sensor_id;sensor_type;location;lat;lon;timestamp;P1;durP1;ratioP1;P2;durP2;ratioP2
9773;SDS011;4926;42.670;23.316;2022-08-19T00:01:47;9.68;;;6.40;;
9773;SDS011;4926;42.670;23.316;2022-08-19T00:04:17;9.23;;;6.32;;
9773;SDS011;4926;42.670;23.316;2022-08-19T00:06:48;7.50;;;6.05;;
9773;SDS011;4926;42.670;23.316;2022-08-19T00:09:16;10.32;;;6.30;;
9773;SDS011;4926;42.670;23.316;2022-08-19T00:11:46;9.88;;;6.70;;
9773;SDS011;4926;42.670;23.316;2022-08-19T00:14:14;8.63;;;6.55;;
9773;SDS011;4926;42.670;23.316;2022-08-19T00:16:43;9.20;;;6.65;;
9773;SDS011;4926;42.670;23.316;2022-08-19T00:19:13;9.48;;;6.55;;
9773;SDS011;4926;42.670;23.316;2022-08-19T00:21:40;7.32;;;6.35;;
9773;SDS011;4926;42.670;23.316;2022-08-19T00:24:11;7.20;;;6.50;;
9773;SDS011;4926;42.670;23.316;2022-08-19T00:26:40;7.32;;;6.55;;
9773;SDS011;4926;42.670;23.316;2022-08-19T00:29:12;7.15;;;5.90;;
9773;SDS011;4926;42.670;23.316;2022-08-19T00:31:44;8.90;;;6.47;;
9773;SDS011;4926;42.670;23.316;2022-08-19T00:34:11;7.63;;;6.78;;
9773;SDS011;4926;42.670;23.316;2022-08-19T00:36:41;9.57;;;6.45;;
9773;SDS011;4926;42.670;23.316;2022-08-19T00:39:11;9.02;;;6.88;;
9773;SDS011;4926;42.670;23.316;2022-08-19T00:41:39;7.72;;;6.32;;
9773;SDS011;4926;42.670;23.316;2022-08-19T00:44:07;9.60;;;6.47;;
9773;SDS011;4926;42.670;23.316;2022-08-19T00:46:38;9.82;;;7.00;;
9773;SDS011;4926;42.670;23.316;2022-08-19T00:49:08;9.70;;;6.43;;
9773;SDS011;4926;42.670;23.316;2022-08-19T00:51:46;9.40;;;6.43;;
9773;SDS011;4926;42.670;23.316;2022-08-19T00:54:21;7.75;;;6.50;;
9773;SDS011;4926;42.670;23.316;2022-08-19T00:56:51;8.63;;;6.47;;
9773;SDS011;4926;42.670;23.316;2022-08-19T00:59:21;8.02;;;6.32;;
9773;SDS011;4926;42.670;23.316;2022-08-19T01:01:48;8.55;;;6.32;;
9773;SDS011;4926;42.670;23.316;2022-08-19T01:04:18;8.77;;;7.07;;
9773;SDS011;4926;42.670;23.316;2022-08-19T01:06:46;7.85;;;6.85;;
9773;SDS011;4926;42.670;23.316;2022-08-19T01:09:13;8.63;;;6.82;;
9773;SDS011;4926;42.670;23.316;2022-08-19T01:11:41;8.52;;;7.10;;
9773;SDS011;4926;42.670;23.316;2022-08-19T01:14:10;8.00;;;7.20;;
9773;SDS011;4926;42.670;23.316;2022-08-19T01:16:38;6.93;;;6.22;;
9773;SDS011;4926;42.670;23.316;2022-08-19T01:19:09;9.50;;;6.80;;
9773;SDS011;4926;42.670;23.316;2022-08-19T01:21:43;8.48;;;7.15;;
9773;SDS011;4926;42.670;23.316;2022-08-19T01:24:19;8.93;;;7.45;;
9773;SDS011;4926;42.670;23.316;2022-08-19T01:26:50;9.40;;;7.32;;
9773;SDS011;4926;42.670;23.316;2022-08-19T01:29:16;8.95;;;7.43;;
9773;SDS011;4926;42.670;23.316;2022-08-19T01:31:43;11.63;;;7.10;;
9773;SDS011;4926;42.670;23.316;2022-08-19T01:34:10;8.50;;;7.43;;
9773;SDS011;4926;42.670;23.316;2022-08-19T01:36:39;9.32;;;7.53;;
9773;SDS011;4926;42.670;23.316;2022-08-19T01:39:09;14.32;;;7.95;;
9773;SDS011;4926;42.670;23.316;2022-08-19T01:41:40;9.68;;;7.30;;
9773;SDS011;4926;42.670;23.316;2022-08-19T01:44:08;9.18;;;7.45;;
9773;SDS011;4926;42.670;23.316;2022-08-19T01:46:38;8.25;;;7.38;;
9773;SDS011;4926;42.670;23.316;2022-08-19T01:49:10;8.32;;;7.20;;
9773;SDS011;4926;42.670;23.316;2022-08-19T01:51:37;8.68;;;7.10;;
9773;SDS011;4926;42.670;23.316;2022-08-19T01:54:04;11.23;;;7.35;;
9773;SDS011;4926;42.670;23.316;2022-08-19T01:56:31;8.30;;;7.45;;
9773;SDS011;4926;42.670;23.316;2022-08-19T01:59:03;8.65;;;7.85;;
9773;SDS011;4926;42.670;23.316;2022-08-19T02:01:34;10.90;;;8.00;;
9773;SDS011;4926;42.670;23.316;2022-08-19T02:04:01;10.00;;;7.75;;
9773;SDS011;4926;42.670;23.316;2022-08-19T02:06:31;14.85;;;8.00;;
9773;SDS011;4926;42.670;23.316;2022-08-19T02:08:58;10.95;;;7.80;;
9773;SDS011;4926;42.670;23.316;2022-08-19T02:11:26;8.05;;;7.03;;
9773;SDS011;4926;42.670;23.316;2022-08-19T02:13:58;11.18;;;7.72;;
9773;SDS011;4926;42.670;23.316;2022-08-19T02:16:30;7.95;;;6.85;;
9773;SDS011;4926;42.670;23.316;2022-08-19T02:18:58;8.93;;;7.10;;
9773;SDS011;4926;42.670;23.316;2022-08-19T02:21:25;10.73;;;8.15;;
9773;SDS011;4926;42.670;23.316;2022-08-19T02:23:56;10.77;;;7.75;;
9773;SDS011;4926;42.670;23.316;2022-08-19T02:26:23;8.30;;;7.50;;
9773;SDS011;4926;42.670;23.316;2022-08-19T02:28:51;7.57;;;6.68;;
9773;SDS011;4926;42.670;23.316;2022-08-19T02:31:20;11.55;;;7.43;;
9773;SDS011;4926;42.670;23.316;2022-08-19T02:33:52;9.70;;;7.50;;
9773;SDS011;4926;42.670;23.316;2022-08-19T02:36:23;7.97;;;6.70;;
9773;SDS011;4926;42.670;23.316;2022-08-19T02:39:00;8.00;;;7.07;;
9773;SDS011;4926;42.670;23.316;2022-08-19T02:41:26;8.45;;;6.88;;
9773;SDS011;4926;42.670;23.316;2022-08-19T02:43:56;10.82;;;6.93;;
9773;SDS011;4926;42.670;23.316;2022-08-19T02:46:26;8.63;;;6.65;;
9773;SDS011;4926;42.670;23.316;2022-08-19T02:48:59;8.52;;;7.20;;
9773;SDS011;4926;42.670;23.316;2022-08-19T02:51:31;9.10;;;6.70;;
9773;SDS011;4926;42.670;23.316;2022-08-19T02:54:01;7.97;;;6.78;;
9773;SDS011;4926;42.670;23.316;2022-08-19T02:56:31;8.25;;;7.03;;
9773;SDS011;4926;42.670;23.316;2022-08-19T02:59:04;10.48;;;6.88;;
9773;SDS011;4926;42.670;23.316;2022-08-19T03:01:36;10.27;;;7.00;;
9773;SDS011;4926;42.670;23.316;2022-08-19T03:04:10;8.90;;;7.80;;
9773;SDS011;4926;42.670;23.316;2022-08-19T03:06:40;9.10;;;8.02;;
9773;SDS011;4926;42.670;23.316;2022-08-19T03:09:10;8.85;;;7.95;;
9773;SDS011;4926;42.670;23.316;2022-08-19T03:11:37;14.32;;;7.97;;
9773;SDS011;4926;42.670;23.316;2022-08-19T03:14:05;14.95;;;8.20;;
9773;SDS011;4926;42.670;23.316;2022-08-19T03:16:33;9.57;;;7.85;;
9773;SDS011;4926;42.670;23.316;2022-08-19T03:19:08;10.57;;;7.50;;
9773;SDS011;4926;42.670;23.316;2022-08-19T03:21:38;8.85;;;7.95;;
9773;SDS011;4926;42.670;23.316;2022-08-19T03:24:06;8.65;;;7.53;;
9773;SDS011;4926;42.670;23.316;2022-08-19T03:26:34;12.30;;;8.10;;
9773;SDS011;4926;42.670;23.316;2022-08-19T03:29:05;8.90;;;8.00;;
9773;SDS011;4926;42.670;23.316;2022-08-19T03:31:36;11.30;;;8.45;;
9773;SDS011;4926;42.670;23.316;2022-08-19T03:34:04;8.05;;;7.20;;
9773;SDS011;4926;42.670;23.316;2022-08-19T03:36:33;8.85;;;7.82;;
9773;SDS011;4926;42.670;23.316;2022-08-19T03:39:03;11.07;;;8.32;;
9773;SDS011;4926;42.670;23.316;2022-08-19T03:41:31;8.98;;;8.07;;
9773;SDS011;4926;42.670;23.316;2022-08-19T03:44:02;8.65;;;7.47;;
9773;SDS011;4926;42.670;23.316;2022-08-19T03:46:35;8.68;;;7.85;;
9773;SDS011;4926;42.670;23.316;2022-08-19T03:49:04;11.40;;;7.88;;
9773;SDS011;4926;42.670;23.316;2022-08-19T03:51:34;11.63;;;7.70;;
9773;SDS011;4926;42.670;23.316;2022-08-19T03:54:05;11.65;;;7.80;;
9773;SDS011;4926;42.670;23.316;2022-08-19T03:56:34;8.55;;;7.60;;
9773;SDS011;4926;42.670;23.316;2022-08-19T03:59:05;10.93;;;8.60;;
9773;SDS011;4926;42.670;23.316;2022-08-19T04:01:34;9.15;;;8.25;;
9773;SDS011;4926;42.670;23.316;2022-08-19T04:04:01;10.60;;;8.50;;
9773;SDS011;4926;42.670;23.316;2022-08-19T04:06:32;9.00;;;7.47;;
9773;SDS011;4926;42.670;23.316;2022-08-19T04:09:03;8.75;;;7.95;;
9773;SDS011;4926;42.670;23.316;2022-08-19T04:11:34;9.18;;;8.25;;
9773;SDS011;4926;42.670;23.316;2022-08-19T04:14:04;10.20;;;8.07;;
9773;SDS011;4926;42.670;23.316;2022-08-19T04:16:35;13.52;;;8.15;;
9773;SDS011;4926;42.670;23.316;2022-08-19T04:19:05;11.63;;;7.93;;
9773;SDS011;4926;42.670;23.316;2022-08-19T04:21:32;12.23;;;8.23;;
9773;SDS011;4926;42.670;23.316;2022-08-19T04:24:01;9.43;;;7.43;;
9773;SDS011;4926;42.670;23.316;2022-08-19T04:26:30;9.13;;;8.23;;
9773;SDS011;4926;42.670;23.316;2022-08-19T04:29:03;11.23;;;8.00;;
9773;SDS011;4926;42.670;23.316;2022-08-19T04:31:34;9.20;;;8.20;;
9773;SDS011;4926;42.670;23.316;2022-08-19T04:34:02;10.52;;;8.02;;
9773;SDS011;4926;42.670;23.316;2022-08-19T04:36:32;10.80;;;9.23;;
9773;SDS011;4926;42.670;23.316;2022-08-19T04:39:03;9.80;;;8.80;;
9773;SDS011;4926;42.670;23.316;2022-08-19T04:41:33;13.25;;;9.75;;
9773;SDS011;4926;42.670;23.316;2022-08-19T04:44:18;11.40;;;9.43;;
9773;SDS011;4926;42.670;23.316;2022-08-19T04:46:45;12.25;;;8.90;;
9773;SDS011;4926;42.670;23.316;2022-08-19T04:49:17;10.15;;;8.65;;
9773;SDS011;4926;42.670;23.316;2022-08-19T04:51:45;11.27;;;9.15;;
9773;SDS011;4926;42.670;23.316;2022-08-19T04:54:15;12.18;;;8.35;;
9773;SDS011;4926;42.670;23.316;2022-08-19T04:56:43;12.63;;;9.25;;
9773;SDS011;4926;42.670;23.316;2022-08-19T04:59:10;10.20;;;9.15;;
9773;SDS011;4926;42.670;23.316;2022-08-19T05:01:37;16.45;;;9.60;;
9773;SDS011;4926;42.670;23.316;2022-08-19T05:04:04;13.48;;;9.40;;
9773;SDS011;4926;42.670;23.316;2022-08-19T05:06:33;10.77;;;9.38;;
9773;SDS011;4926;42.670;23.316;2022-08-19T05:09:00;12.23;;;9.60;;
9773;SDS011;4926;42.670;23.316;2022-08-19T05:11:30;10.85;;;9.40;;
9773;SDS011;4926;42.670;23.316;2022-08-19T05:14:05;15.32;;;10.10;;
9773;SDS011;4926;42.670;23.316;2022-08-19T05:16:41;12.05;;;9.40;;
9773;SDS011;4926;42.670;23.316;2022-08-19T05:19:08;11.18;;;9.70;;
9773;SDS011;4926;42.670;23.316;2022-08-19T05:21:52;11.82;;;9.43;;
9773;SDS011;4926;42.670;23.316;2022-08-19T05:24:37;11.60;;;9.45;;
9773;SDS011;4926;42.670;23.316;2022-08-19T05:27:05;10.85;;;9.68;;
9773;SDS011;4926;42.670;23.316;2022-08-19T05:29:34;13.82;;;9.45;;
9773;SDS011;4926;42.670;23.316;2022-08-19T05:32:01;11.23;;;9.50;;
9773;SDS011;4926;42.670;23.316;2022-08-19T05:34:30;11.02;;;9.93;;
9773;SDS011;4926;42.670;23.316;2022-08-19T05:37:00;12.13;;;10.60;;
9773;SDS011;4926;42.670;23.316;2022-08-19T05:39:30;13.15;;;9.95;;
9773;SDS011;4926;42.670;23.316;2022-08-19T05:42:04;13.48;;;10.20;;
9773;SDS011;4926;42.670;23.316;2022-08-19T05:44:35;12.57;;;10.02;;
9773;SDS011;4926;42.670;23.316;2022-08-19T05:47:05;12.80;;;10.68;;
9773;SDS011;4926;42.670;23.316;2022-08-19T05:49:34;11.90;;;10.60;;
9773;SDS011;4926;42.670;23.316;2022-08-19T05:52:02;13.50;;;10.50;;
9773;SDS011;4926;42.670;23.316;2022-08-19T05:54:30;15.25;;;10.75;;
9773;SDS011;4926;42.670;23.316;2022-08-19T05:56:57;10.75;;;9.75;;
9773;SDS011;4926;42.670;23.316;2022-08-19T05:59:28;11.95;;;9.65;;
9773;SDS011;4926;42.670;23.316;2022-08-19T06:01:55;13.43;;;10.20;;
9773;SDS011;4926;42.670;23.316;2022-08-19T06:04:22;14.88;;;9.95;;
9773;SDS011;4926;42.670;23.316;2022-08-19T06:06:51;14.32;;;10.70;;
9773;SDS011;4926;42.670;23.316;2022-08-19T06:09:19;12.52;;;10.93;;
9773;SDS011;4926;42.670;23.316;2022-08-19T06:11:47;13.73;;;10.15;;
9773;SDS011;4926;42.670;23.316;2022-08-19T06:14:19;13.60;;;9.43;;
9773;SDS011;4926;42.670;23.316;2022-08-19T06:16:49;11.88;;;9.73;;
9773;SDS011;4926;42.670;23.316;2022-08-19T06:19:17;18.17;;;10.13;;
9773;SDS011;4926;42.670;23.316;2022-08-19T06:21:46;14.75;;;9.35;;
9773;SDS011;4926;42.670;23.316;2022-08-19T06:24:17;12.25;;;9.40;;
9773;SDS011;4926;42.670;23.316;2022-08-19T06:26:48;11.40;;;9.57;;
9773;SDS011;4926;42.670;23.316;2022-08-19T06:29:16;11.38;;;8.90;;
9773;SDS011;4926;42.670;23.316;2022-08-19T06:31:46;12.93;;;9.45;;
9773;SDS011;4926;42.670;23.316;2022-08-19T06:34:16;12.10;;;9.98;;
9773;SDS011;4926;42.670;23.316;2022-08-19T06:36:44;11.05;;;8.50;;
9773;SDS011;4926;42.670;23.316;2022-08-19T06:39:16;13.18;;;9.65;;
9773;SDS011;4926;42.670;23.316;2022-08-19T06:41:50;9.75;;;8.80;;
9773;SDS011;4926;42.670;23.316;2022-08-19T06:44:20;9.15;;;8.00;;
9773;SDS011;4926;42.670;23.316;2022-08-19T06:46:48;13.50;;;8.90;;
9773;SDS011;4926;42.670;23.316;2022-08-19T06:49:19;9.82;;;8.45;;
9773;SDS011;4926;42.670;23.316;2022-08-19T06:51:49;13.50;;;9.05;;
9773;SDS011;4926;42.670;23.316;2022-08-19T06:54:20;9.55;;;8.23;;
9773;SDS011;4926;42.670;23.316;2022-08-19T06:56:48;12.07;;;8.85;;
9773;SDS011;4926;42.670;23.316;2022-08-19T06:59:18;11.05;;;8.60;;
9773;SDS011;4926;42.670;23.316;2022-08-19T07:01:48;10.02;;;8.13;;
9773;SDS011;4926;42.670;23.316;2022-08-19T07:04:17;9.68;;;8.43;;
9773;SDS011;4926;42.670;23.316;2022-08-19T07:06:47;14.32;;;9.98;;
9773;SDS011;4926;42.670;23.316;2022-08-19T07:09:16;12.60;;;8.93;;
9773;SDS011;4926;42.670;23.316;2022-08-19T07:11:44;12.85;;;9.15;;
9773;SDS011;4926;42.670;23.316;2022-08-19T07:14:12;13.00;;;9.02;;
9773;SDS011;4926;42.670;23.316;2022-08-19T07:16:42;12.02;;;8.73;;
9773;SDS011;4926;42.670;23.316;2022-08-19T07:19:10;12.15;;;8.35;;
9773;SDS011;4926;42.670;23.316;2022-08-19T07:21:39;13.77;;;9.02;;
9773;SDS011;4926;42.670;23.316;2022-08-19T07:24:06;11.43;;;9.00;;
9773;SDS011;4926;42.670;23.316;2022-08-19T07:26:37;12.38;;;8.82;;
9773;SDS011;4926;42.670;23.316;2022-08-19T07:29:06;10.20;;;8.65;;
9773;SDS011;4926;42.670;23.316;2022-08-19T07:31:34;9.95;;;8.80;;
9773;SDS011;4926;42.670;23.316;2022-08-19T07:34:02;12.15;;;8.98;;
9773;SDS011;4926;42.670;23.316;2022-08-19T07:36:31;12.93;;;8.45;;
9773;SDS011;4926;42.670;23.316;2022-08-19T07:39:06;11.35;;;7.82;;
9773;SDS011;4926;42.670;23.316;2022-08-19T07:41:36;10.80;;;8.00;;
9773;SDS011;4926;42.670;23.316;2022-08-19T07:44:04;12.00;;;7.40;;
9773;SDS011;4926;42.670;23.316;2022-08-19T07:46:33;8.25;;;7.15;;
9773;SDS011;4926;42.670;23.316;2022-08-19T07:49:05;12.18;;;7.45;;
9773;SDS011;4926;42.670;23.316;2022-08-19T07:51:33;10.15;;;8.23;;
9773;SDS011;4926;42.670;23.316;2022-08-19T07:54:01;11.23;;;7.32;;
9773;SDS011;4926;42.670;23.316;2022-08-19T07:56:31;10.75;;;7.25;;
9773;SDS011;4926;42.670;23.316;2022-08-19T07:58:58;13.50;;;7.75;;
9773;SDS011;4926;42.670;23.316;2022-08-19T08:01:26;10.68;;;7.43;;
9773;SDS011;4926;42.670;23.316;2022-08-19T08:03:56;11.13;;;7.40;;
9773;SDS011;4926;42.670;23.316;2022-08-19T08:06:41;10.70;;;7.53;;
9773;SDS011;4926;42.670;23.316;2022-08-19T08:09:29;10.00;;;7.55;;
9773;SDS011;4926;42.670;23.316;2022-08-19T08:12:01;12.43;;;7.93;;
9773;SDS011;4926;42.670;23.316;2022-08-19T08:14:34;12.90;;;7.20;;
9773;SDS011;4926;42.670;23.316;2022-08-19T08:17:06;10.98;;;7.13;;
9773;SDS011;4926;42.670;23.316;2022-08-19T08:19:34;10.85;;;7.50;;
9773;SDS011;4926;42.670;23.316;2022-08-19T08:22:02;12.80;;;7.22;;
9773;SDS011;4926;42.670;23.316;2022-08-19T08:24:31;10.77;;;6.90;;
9773;SDS011;4926;42.670;23.316;2022-08-19T08:26:58;7.88;;;7.05;;
9773;SDS011;4926;42.670;23.316;2022-08-19T08:29:34;10.75;;;6.80;;
9773;SDS011;4926;42.670;23.316;2022-08-19T08:32:00;9.40;;;6.72;;
9773;SDS011;4926;42.670;23.316;2022-08-19T08:34:28;9.73;;;6.57;;
9773;SDS011;4926;42.670;23.316;2022-08-19T08:36:55;7.93;;;7.15;;
9773;SDS011;4926;42.670;23.316;2022-08-19T08:39:22;10.27;;;7.18;;
9773;SDS011;4926;42.670;23.316;2022-08-19T08:41:51;8.27;;;7.03;;
9773;SDS011;4926;42.670;23.316;2022-08-19T08:44:38;9.35;;;6.50;;
9773;SDS011;4926;42.670;23.316;2022-08-19T08:47:17;6.78;;;6.07;;
9773;SDS011;4926;42.670;23.316;2022-08-19T08:49:48;8.20;;;6.28;;
9773;SDS011;4926;42.670;23.316;2022-08-19T08:52:19;9.30;;;5.90;;
9773;SDS011;4926;42.670;23.316;2022-08-19T08:54:50;7.43;;;5.60;;
9773;SDS011;4926;42.670;23.316;2022-08-19T08:57:21;7.50;;;6.75;;
9773;SDS011;4926;42.670;23.316;2022-08-19T08:59:54;8.95;;;5.80;;
9773;SDS011;4926;42.670;23.316;2022-08-19T09:02:23;7.07;;;5.70;;
9773;SDS011;4926;42.670;23.316;2022-08-19T09:04:53;7.07;;;6.28;;
9773;SDS011;4926;42.670;23.316;2022-08-19T09:07:23;7.63;;;5.70;;
9773;SDS011;4926;42.670;23.316;2022-08-19T09:09:57;6.97;;;5.95;;
9773;SDS011;4926;42.670;23.316;2022-08-19T09:12:31;7.93;;;5.45;;
9773;SDS011;4926;42.670;23.316;2022-08-19T09:15:08;6.07;;;5.15;;
9773;SDS011;4926;42.670;23.316;2022-08-19T09:17:38;8.18;;;5.40;;
9773;SDS011;4926;42.670;23.316;2022-08-19T09:20:06;9.32;;;5.10;;
9773;SDS011;4926;42.670;23.316;2022-08-19T09:22:46;6.60;;;5.00;;
9773;SDS011;4926;42.670;23.316;2022-08-19T09:25:15;5.68;;;3.75;;
9773;SDS011;4926;42.670;23.316;2022-08-19T09:27:48;5.40;;;4.90;;
9773;SDS011;4926;42.670;23.316;2022-08-19T09:30:20;6.32;;;4.90;;
9773;SDS011;4926;42.670;23.316;2022-08-19T09:32:49;5.40;;;4.90;;
9773;SDS011;4926;42.670;23.316;2022-08-19T09:35:18;5.10;;;4.60;;
9773;SDS011;4926;42.670;23.316;2022-08-19T09:37:48;4.50;;;4.10;;
9773;SDS011;4926;42.670;23.316;2022-08-19T09:40:17;8.23;;;4.43;;
9773;SDS011;4926;42.670;23.316;2022-08-19T09:42:47;5.82;;;4.35;;
9773;SDS011;4926;42.670;23.316;2022-08-19T09:45:14;6.88;;;4.15;;
9773;SDS011;4926;42.670;23.316;2022-08-19T09:47:44;7.25;;;4.93;;
9773;SDS011;4926;42.670;23.316;2022-08-19T09:50:11;6.32;;;4.15;;
9773;SDS011;4926;42.670;23.316;2022-08-19T09:52:43;4.82;;;4.35;;
9773;SDS011;4926;42.670;23.316;2022-08-19T09:55:10;4.70;;;4.13;;
9773;SDS011;4926;42.670;23.316;2022-08-19T09:57:43;7.63;;;3.90;;
9773;SDS011;4926;42.670;23.316;2022-08-19T10:00:13;5.78;;;4.20;;
9773;SDS011;4926;42.670;23.316;2022-08-19T10:02:40;4.53;;;4.13;;
9773;SDS011;4926;42.670;23.316;2022-08-19T10:05:09;4.40;;;4.00;;
9773;SDS011;4926;42.670;23.316;2022-08-19T10:07:53;5.15;;;4.50;;
9773;SDS011;4926;42.670;23.316;2022-08-19T10:10:19;4.47;;;4.07;;
9773;SDS011;4926;42.670;23.316;2022-08-19T10:12:49;5.45;;;4.60;;
9773;SDS011;4926;42.670;23.316;2022-08-19T10:15:15;5.18;;;4.22;;
9773;SDS011;4926;42.670;23.316;2022-08-19T10:17:46;4.68;;;4.28;;
9773;SDS011;4926;42.670;23.316;2022-08-19T10:20:14;5.68;;;4.30;;
9773;SDS011;4926;42.670;23.316;2022-08-19T10:22:44;5.25;;;4.22;;
9773;SDS011;4926;42.670;23.316;2022-08-19T10:25:11;5.22;;;4.65;;
9773;SDS011;4926;42.670;23.316;2022-08-19T10:27:42;4.68;;;4.25;;
9773;SDS011;4926;42.670;23.316;2022-08-19T10:30:09;6.80;;;4.13;;
9773;SDS011;4926;42.670;23.316;2022-08-19T10:32:37;7.32;;;4.70;;
9773;SDS011;4926;42.670;23.316;2022-08-19T10:35:04;5.93;;;4.57;;
9773;SDS011;4926;42.670;23.316;2022-08-19T10:37:37;5.97;;;4.45;;
9773;SDS011;4926;42.670;23.316;2022-08-19T10:40:05;5.03;;;4.53;;
9773;SDS011;4926;42.670;23.316;2022-08-19T10:42:35;4.97;;;4.57;;
9773;SDS011;4926;42.670;23.316;2022-08-19T10:45:03;5.35;;;4.40;;
9773;SDS011;4926;42.670;23.316;2022-08-19T10:47:32;7.60;;;4.90;;
9773;SDS011;4926;42.670;23.316;2022-08-19T10:49:59;9.63;;;4.80;;
9773;SDS011;4926;42.670;23.316;2022-08-19T10:52:45;5.47;;;4.30;;
9773;SDS011;4926;42.670;23.316;2022-08-19T10:55:13;6.05;;;5.18;;
9773;SDS011;4926;42.670;23.316;2022-08-19T10:57:58;5.68;;;4.53;;
9773;SDS011;4926;42.670;23.316;2022-08-19T11:00:24;5.65;;;5.10;;
9773;SDS011;4926;42.670;23.316;2022-08-19T11:02:51;6.55;;;5.25;;
9773;SDS011;4926;42.670;23.316;2022-08-19T11:05:21;6.13;;;4.78;;
9773;SDS011;4926;42.670;23.316;2022-08-19T11:07:49;6.82;;;5.05;;
9773;SDS011;4926;42.670;23.316;2022-08-19T11:10:16;7.55;;;4.50;;
9773;SDS011;4926;42.670;23.316;2022-08-19T11:12:53;5.47;;;4.85;;
9773;SDS011;4926;42.670;23.316;2022-08-19T11:15:20;6.07;;;4.90;;
9773;SDS011;4926;42.670;23.316;2022-08-19T11:17:53;4.97;;;4.57;;
9773;SDS011;4926;42.670;23.316;2022-08-19T11:20:27;8.75;;;4.80;;
9773;SDS011;4926;42.670;23.316;2022-08-19T11:22:59;8.82;;;5.43;;
9773;SDS011;4926;42.670;23.316;2022-08-19T11:25:26;6.13;;;4.60;;
9773;SDS011;4926;42.670;23.316;2022-08-19T11:27:53;8.60;;;4.90;;
9773;SDS011;4926;42.670;23.316;2022-08-19T11:30:20;7.25;;;5.10;;
9773;SDS011;4926;42.670;23.316;2022-08-19T11:32:47;5.50;;;5.00;;
9773;SDS011;4926;42.670;23.316;2022-08-19T11:35:14;7.13;;;5.20;;
9773;SDS011;4926;42.670;23.316;2022-08-19T11:37:41;5.30;;;4.65;;
9773;SDS011;4926;42.670;23.316;2022-08-19T11:40:13;6.40;;;4.63;;
9773;SDS011;4926;42.670;23.316;2022-08-19T11:42:39;7.47;;;4.75;;
9773;SDS011;4926;42.670;23.316;2022-08-19T11:45:22;8.98;;;5.05;;
9773;SDS011;4926;42.670;23.316;2022-08-19T11:47:49;6.80;;;4.97;;
9773;SDS011;4926;42.670;23.316;2022-08-19T11:50:20;6.63;;;5.07;;
9773;SDS011;4926;42.670;23.316;2022-08-19T11:52:48;5.15;;;4.45;;
9773;SDS011;4926;42.670;23.316;2022-08-19T11:55:16;6.07;;;5.10;;
9773;SDS011;4926;42.670;23.316;2022-08-19T11:57:44;6.13;;;4.93;;
9773;SDS011;4926;42.670;23.316;2022-08-19T12:00:12;5.75;;;4.65;;
9773;SDS011;4926;42.670;23.316;2022-08-19T12:02:40;6.03;;;5.13;;
9773;SDS011;4926;42.670;23.316;2022-08-19T12:05:09;5.43;;;4.93;;
9773;SDS011;4926;42.670;23.316;2022-08-19T12:07:36;5.32;;;4.65;;
9773;SDS011;4926;42.670;23.316;2022-08-19T12:10:03;5.50;;;5.00;;
9773;SDS011;4926;42.670;23.316;2022-08-19T12:12:31;5.65;;;4.93;;
9773;SDS011;4926;42.670;23.316;2022-08-19T12:15:01;9.93;;;5.30;;
9773;SDS011;4926;42.670;23.316;2022-08-19T12:17:29;7.40;;;5.50;;
9773;SDS011;4926;42.670;23.316;2022-08-19T12:19:55;5.72;;;4.85;;
9773;SDS011;4926;42.670;23.316;2022-08-19T12:22:23;6.28;;;5.03;;
9773;SDS011;4926;42.670;23.316;2022-08-19T12:24:49;7.80;;;4.70;;
9773;SDS011;4926;42.670;23.316;2022-08-19T12:27:18;8.45;;;5.00;;
9773;SDS011;4926;42.670;23.316;2022-08-19T12:29:48;5.90;;;5.03;;
9773;SDS011;4926;42.670;23.316;2022-08-19T12:32:14;5.97;;;5.15;;
9773;SDS011;4926;42.670;23.316;2022-08-19T12:34:42;6.43;;;4.82;;
9773;SDS011;4926;42.670;23.316;2022-08-19T12:37:13;6.00;;;5.18;;
9773;SDS011;4926;42.670;23.316;2022-08-19T12:39:40;6.35;;;4.90;;
9773;SDS011;4926;42.670;23.316;2022-08-19T12:42:08;5.82;;;4.97;;
9773;SDS011;4926;42.670;23.316;2022-08-19T12:44:36;7.00;;;4.90;;
9773;SDS011;4926;42.670;23.316;2022-08-19T12:47:04;6.78;;;4.70;;
9773;SDS011;4926;42.670;23.316;2022-08-19T12:49:32;8.02;;;5.68;;
9773;SDS011;4926;42.670;23.316;2022-08-19T12:52:02;9.93;;;5.32;;
9773;SDS011;4926;42.670;23.316;2022-08-19T12:54:33;5.22;;;4.75;;
9773;SDS011;4926;42.670;23.316;2022-08-19T12:57:00;7.88;;;5.35;;
9773;SDS011;4926;42.670;23.316;2022-08-19T12:59:31;7.93;;;4.90;;
9773;SDS011;4926;42.670;23.316;2022-08-19T13:01:58;6.90;;;4.97;;
9773;SDS011;4926;42.670;23.316;2022-08-19T13:04:26;6.57;;;5.22;;
9773;SDS011;4926;42.670;23.316;2022-08-19T13:07:03;6.15;;;4.93;;
9773;SDS011;4926;42.670;23.316;2022-08-19T13:09:30;6.93;;;5.00;;
9773;SDS011;4926;42.670;23.316;2022-08-19T13:11:58;8.30;;;4.75;;
9773;SDS011;4926;42.670;23.316;2022-08-19T13:14:27;5.38;;;4.88;;
9773;SDS011;4926;42.670;23.316;2022-08-19T13:16:58;6.97;;;4.55;;
9773;SDS011;4926;42.670;23.316;2022-08-19T13:19:28;6.13;;;4.80;;
9773;SDS011;4926;42.670;23.316;2022-08-19T13:21:56;6.35;;;4.95;;
9773;SDS011;4926;42.670;23.316;2022-08-19T13:24:23;7.22;;;5.20;;
9773;SDS011;4926;42.670;23.316;2022-08-19T13:26:50;7.05;;;5.10;;
9773;SDS011;4926;42.670;23.316;2022-08-19T13:29:32;10.73;;;5.10;;
9773;SDS011;4926;42.670;23.316;2022-08-19T13:32:16;4.93;;;4.53;;
9773;SDS011;4926;42.670;23.316;2022-08-19T13:35:02;7.38;;;4.60;;
9773;SDS011;4926;42.670;23.316;2022-08-19T13:37:29;7.88;;;4.60;;
9773;SDS011;4926;42.670;23.316;2022-08-19T13:40:17;5.50;;;4.60;;
9773;SDS011;4926;42.670;23.316;2022-08-19T13:42:47;5.65;;;4.50;;
9773;SDS011;4926;42.670;23.316;2022-08-19T13:45:16;8.00;;;4.93;;
9773;SDS011;4926;42.670;23.316;2022-08-19T13:47:46;5.93;;;4.80;;
9773;SDS011;4926;42.670;23.316;2022-08-19T13:50:16;7.90;;;5.32;;
9773;SDS011;4926;42.670;23.316;2022-08-19T13:52:44;7.00;;;5.28;;
9773;SDS011;4926;42.670;23.316;2022-08-19T13:55:12;6.95;;;5.50;;
9773;SDS011;4926;42.670;23.316;2022-08-19T13:57:41;9.43;;;5.63;;
9773;SDS011;4926;42.670;23.316;2022-08-19T14:00:10;7.22;;;5.63;;
9773;SDS011;4926;42.670;23.316;2022-08-19T14:02:39;5.55;;;4.50;;
9773;SDS011;4926;42.670;23.316;2022-08-19T14:05:11;6.22;;;4.85;;
9773;SDS011;4926;42.670;23.316;2022-08-19T14:07:41;9.75;;;5.43;;
9773;SDS011;4926;42.670;23.316;2022-08-19T14:10:09;5.97;;;5.35;;
9773;SDS011;4926;42.670;23.316;2022-08-19T14:12:37;7.05;;;5.00;;
9773;SDS011;4926;42.670;23.316;2022-08-19T14:15:04;6.45;;;5.32;;
9773;SDS011;4926;42.670;23.316;2022-08-19T14:17:32;7.80;;;5.07;;
9773;SDS011;4926;42.670;23.316;2022-08-19T14:20:03;5.53;;;4.80;;
9773;SDS011;4926;42.670;23.316;2022-08-19T14:22:33;7.53;;;5.22;;
9773;SDS011;4926;42.670;23.316;2022-08-19T14:25:03;7.55;;;5.18;;
9773;SDS011;4926;42.670;23.316;2022-08-19T14:27:33;7.20;;;4.88;;
9773;SDS011;4926;42.670;23.316;2022-08-19T14:30:03;6.22;;;5.35;;
9773;SDS011;4926;42.670;23.316;2022-08-19T14:32:31;8.73;;;5.18;;
9773;SDS011;4926;42.670;23.316;2022-08-19T14:34:59;8.43;;;5.03;;
9773;SDS011;4926;42.670;23.316;2022-08-19T14:37:26;7.20;;;5.47;;
9773;SDS011;4926;42.670;23.316;2022-08-19T14:39:52;9.73;;;5.22;;
9773;SDS011;4926;42.670;23.316;2022-08-19T14:42:21;7.45;;;5.28;;
9773;SDS011;4926;42.670;23.316;2022-08-19T14:44:47;6.82;;;5.95;;
9773;SDS011;4926;42.670;23.316;2022-08-19T14:47:14;6.18;;;5.60;;
9773;SDS011;4926;42.670;23.316;2022-08-19T14:49:44;6.32;;;5.28;;
9773;SDS011;4926;42.670;23.316;2022-08-19T14:52:11;7.22;;;5.50;;
9773;SDS011;4926;42.670;23.316;2022-08-19T14:54:38;5.85;;;5.35;;
9773;SDS011;4926;42.670;23.316;2022-08-19T14:57:13;5.93;;;5.32;;
9773;SDS011;4926;42.670;23.316;2022-08-19T14:59:42;7.10;;;5.35;;
9773;SDS011;4926;42.670;23.316;2022-08-19T15:02:10;9.32;;;5.75;;
9773;SDS011;4926;42.670;23.316;2022-08-19T15:04:38;5.80;;;4.97;;
9773;SDS011;4926;42.670;23.316;2022-08-19T15:07:05;9.15;;;5.78;;
9773;SDS011;4926;42.670;23.316;2022-08-19T15:09:32;8.70;;;6.03;;
9773;SDS011;4926;42.670;23.316;2022-08-19T15:11:59;7.03;;;5.72;;